Time;durP1;ratioP1;P1;durP2;ratioP2;P2;SDS_P1;SDS_P2;PMS_P1;PMS_P2;Temp;Humidity;BMP_temperature;BMP_pressure;BME280_temperature;BME280_humidity;BME280_pressure;Samples;Min_cycle;Max_cycle;Signal;HPM_P1;HPM_P2
2022/04/06 00:00:29;;;;;;;7.50;3.67;;;;;;;7.81;42.58;100967.44;2569921;23;20214;-74
2022/04/06 00:01:29;;;;;;;4.93;3.30;;;;;;;7.78;42.47;100970.19;2569499;23;20403;-74
2022/04/06 00:02:30;;;;;;;7.10;3.70;;;;;;;7.79;41.94;100969.81;2569830;23;20145;-74
2022/04/06 00:03:30;;;;;;;7.70;4.40;;;;;;;7.79;42.64;100971.81;2569186;23;20151;-74
2022/04/06 00:04:31;;;;;;;9.93;4.33;;;;;;;7.72;42.11;100958.03;2570009;23;20543;-74
2022/04/06 00:05:31;;;;;;;7.93;4.50;;;;;;;6.79;42.46;100825.91;2569915;23;20555;-74
2022/04/06 00:06:32;;;;;;;5.30;4.07;;;;;;;7.73;41.94;100970.63;2570023;23;20182;-74
2022/04/06 00:07:33;;;;;;;8.33;3.90;;;;;;;7.33;42.46;100914.16;2569272;23;20144;-74
2022/04/06 00:08:33;;;;;;;7.37;3.70;;;;;;;7.68;42.61;100980.13;2570002;23;20152;-74
2022/04/06 00:09:37;;;;;;;7.10;4.00;;;;;;;7.67;42.44;100969.50;2569816;23;20180;-74
2022/04/06 00:10:37;;;;;;;6.45;4.35;;;;;;;7.63;42.66;100974.28;2570034;23;20156;-74
2022/04/06 00:11:38;;;;;;;7.20;3.93;;;;;;;7.61;42.35;100977.44;2556230;23;20161;-74
2022/04/06 00:12:39;;;;;;;7.83;4.77;;;;;;;7.12;42.24;100903.25;2556884;23;20234;-74
2022/04/06 00:13:40;;;;;;;12.00;5.22;;;;;;;6.38;43.02;100791.88;2555721;23;20232;-74
2022/04/06 00:14:40;;;;;;;10.43;4.60;;;;;;;7.43;42.74;100968.47;2556767;23;20658;-74
2022/04/06 00:15:41;;;;;;;11.00;5.30;;;;;;;7.49;42.39;100980.63;2569916;23;20608;-74
2022/04/06 00:16:43;;;;;;;9.40;5.43;;;;;;;7.47;42.59;100972.00;2569532;23;20179;-74
2022/04/06 00:17:43;;;;;;;7.43;4.82;;;;;;;7.40;43.06;100974.78;2569620;23;20238;-74
2022/04/06 00:18:44;;;;;;;8.83;4.90;;;;;;;7.38;43.36;100979.16;2570000;23;20155;-74
2022/04/06 00:19:44;;;;;;;7.00;4.80;;;;;;;7.35;43.43;100977.19;2569886;23;20506;-74
2022/04/06 00:20:45;;;;;;;7.40;4.33;;;;;;;6.35;43.22;100832.00;2570011;23;20152;-74
2022/04/06 00:21:45;;;;;;;7.97;4.43;;;;;;;7.27;43.46;100975.63;2569443;23;20233;-74
2022/04/06 00:22:46;;;;;;;5.97;3.80;;;;;;;6.08;43.70;100795.16;2569882;23;20158;-74
2022/04/06 00:23:46;;;;;;;7.87;4.50;;;;;;;7.21;43.22;100971.72;2568854;23;20159;-74
2022/04/06 00:24:47;;;;;;;7.13;4.40;;;;;;;7.20;43.13;100976.47;2569994;23;20197;-74
2022/04/06 00:25:48;;;;;;;6.10;4.37;;;;;;;7.21;43.27;100971.72;2569770;23;20151;-74
2022/04/06 00:26:49;;;;;;;5.23;3.77;;;;;;;7.12;43.46;100963.91;2569339;23;20155;-74
2022/04/06 00:27:49;;;;;;;9.20;4.57;;;;;;;6.86;43.80;100938.81;2570047;23;20487;-74
2022/04/06 00:28:50;;;;;;;25.30;6.93;;;;;;;7.06;43.14;100978.47;2569806;23;20506;-74
2022/04/06 00:29:51;;;;;;;15.32;5.60;;;;;;;6.99;43.19;100973.00;2570127;23;20159;-74
2022/04/06 00:30:52;;;;;;;17.50;5.60;;;;;;;5.97;43.33;100849.41;2569873;23;20418;-74
2022/04/06 00:31:53;;;;;;;10.40;4.93;;;;;;;6.90;43.55;100986.41;2569403;23;20728;-74
2022/04/06 00:32:53;;;;;;;13.70;4.67;;;;;;;6.85;43.92;100984.06;2569791;23;20155;-74
2022/04/06 00:33:55;;;;;;;7.73;4.03;;;;;;;6.81;43.98;100978.56;2569029;23;20178;-74
2022/04/06 00:36:14;;;;;;;8.80;4.72;;;;;;;6.77;43.95;100983.31;2560476;23;20147;-74
2022/04/06 00:37:15;;;;;;;5.83;4.20;;;;;;;6.70;44.05;100982.53;2569098;23;20150;-74
2022/04/06 00:38:15;;;;;;;7.43;3.80;;;;;;;6.64;44.41;100986.88;2569828;23;20256;-74
2022/04/06 00:39:16;;;;;;;6.53;4.20;;;;;;;6.56;44.55;100980.59;2570070;23;20176;-74
2022/04/06 00:40:19;;;;;;;6.03;3.87;;;;;;;6.51;45.06;100988.50;2569833;23;20159;-74
2022/04/06 00:41:21;;;;;;;8.93;4.57;;;;;;;6.33;45.16;100963.75;2569468;23;20150;-74
2022/04/06 00:42:21;;;;;;;7.43;3.95;;;;;;;6.45;45.22;100988.09;2569838;23;20498;-74
2022/04/06 00:43:21;;;;;;;8.13;4.43;;;;;;;6.35;45.21;100982.63;2569102;23;20150;-74
2022/04/06 00:44:22;;;;;;;6.73;4.30;;;;;;;6.27;45.42;100987.34;2569592;23;20152;-74
2022/04/06 00:45:24;;;;;;;5.50;3.60;;;;;;;6.16;45.79;100972.00;2568836;23;20236;-74
2022/04/06 00:46:24;;;;;;;5.15;3.45;;;;;;;6.18;45.65;100989.72;2569257;23;20636;-74
2022/04/06 00:47:25;;;;;;;6.87;3.67;;;;;;;6.12;45.20;100984.97;2568330;23;20495;-74
2022/04/06 00:48:25;;;;;;;6.07;3.63;;;;;;;6.06;46.08;100970.81;2568927;23;20214;-74
2022/04/06 00:49:26;;;;;;;6.13;3.40;;;;;;;6.16;45.89;100991.28;2569321;23;20158;-74
2022/04/06 00:50:26;;;;;;;5.70;3.17;;;;;;;6.09;45.99;100972.81;2569260;23;20411;-74
2022/04/06 00:51:28;;;;;;;5.13;3.13;;;;;;;6.12;45.62;100968.47;2568774;23;20159;-74
2022/04/06 00:52:29;;;;;;;6.15;3.60;;;;;;;6.24;45.56;100992.84;2569130;23;20227;-74
2022/04/06 00:53:30;;;;;;;5.75;3.60;;;;;;;6.16;45.83;100970.03;2568598;23;20331;-74
2022/04/06 00:54:32;;;;;;;5.70;3.50;;;;;;;6.26;45.71;101015.25;2569360;23;20145;-74
2022/04/06 00:55:35;;;;;;;5.10;3.42;;;;;;;6.12;45.19;100965.72;2569130;23;20186;-74
2022/04/06 00:56:36;;;;;;;4.82;3.30;;;;;;;5.90;45.46;100923.66;2569361;23;20179;-74
2022/04/06 00:57:37;;;;;;;6.07;3.60;;;;;;;5.64;45.64;100896.53;2568544;23;20144;-74
2022/04/06 00:58:38;;;;;;;5.88;3.50;;;;;;;6.20;46.03;100983.81;2569285;23;20152;-74
2022/04/06 00:59:41;;;;;;;5.80;3.63;;;;;;;6.20;46.12;100987.34;2569073;23;20663;-74
2022/04/06 01:00:42;;;;;;;6.53;3.70;;;;;;;6.21;46.32;101001.91;2569300;23;20583;-74
2022/04/06 01:01:48;;;;;;;5.40;3.57;;;;;;;6.12;45.57;100983.03;2568697;23;20161;-74
2022/04/06 01:02:48;;;;;;;4.72;3.30;;;;;;;5.27;46.14;100840.34;2569303;23;20138;-74
2022/04/06 01:03:49;;;;;;;5.27;3.43;;;;;;;6.22;45.98;100978.69;2568354;23;20554;-74
2022/04/06 01:04:49;;;;;;;5.90;3.20;;;;;;;6.23;45.81;100985.75;2569214;23;20501;-74
2022/04/06 01:05:50;;;;;;;5.63;3.20;;;;;;;6.12;45.63;100972.03;2569061;23;20153;-74
2022/04/06 01:06:52;;;;;;;5.80;3.50;;;;;;;6.22;45.98;100984.19;2568502;23;20155;-74
2022/04/06 01:07:55;;;;;;;6.10;3.50;;;;;;;6.21;45.79;100982.63;2569048;23;20159;-74
2022/04/06 01:08:57;;;;;;;6.50;3.65;;;;;;;5.90;45.55;100944.91;2569359;23;20467;-74
2022/04/06 01:09:57;;;;;;;7.53;3.60;;;;;;;6.15;45.73;100992.47;2569212;23;20226;-74
2022/04/06 01:10:58;;;;;;;6.27;3.47;;;;;;;6.18;46.33;100988.91;2569213;23;20161;-74
2022/04/06 01:11:59;;;;;;;6.10;3.50;;;;;;;6.19;45.78;100995.97;2568576;23;20539;-74
2022/04/06 01:13:00;;;;;;;6.83;3.80;;;;;;;6.03;46.61;100987.34;2569167;23;20170;-74
2022/04/06 01:14:02;;;;;;;6.73;3.83;;;;;;;6.21;47.14;100994.41;2568234;23;20476;-74
2022/04/06 01:15:03;;;;;;;6.28;3.72;;;;;;;5.99;46.28;100950.78;2569161;23;20526;-74
2022/04/06 01:16:04;;;;;;;4.93;3.25;;;;;;;6.19;46.12;100971.22;2569069;23;20150;-74
2022/04/06 01:17:07;;;;;;;4.73;3.10;;;;;;;6.31;46.79;100987.34;2568704;23;20164;-74
2022/04/06 01:18:09;;;;;;;8.15;3.60;;;;;;;5.07;46.13;100808.97;2569287;23;20478;-74
2022/04/06 01:19:09;;;;;;;5.45;3.60;;;;;;;5.89;45.81;100921.34;2569179;23;20154;-74
2022/04/06 01:20:11;;;;;;;5.97;3.33;;;;;;;6.37;46.04;100994.81;2569024;23;20150;-74
2022/04/06 01:21:12;;;;;;;5.90;3.60;;;;;;;6.40;46.52;100987.72;2568892;23;20160;-74
2022/04/06 01:22:15;;;;;;;5.38;3.40;;;;;;;5.38;46.32;100833.69;2569047;23;20150;-74
2022/04/06 01:23:15;;;;;;;5.55;3.67;;;;;;;6.20;46.11;100953.53;2568564;23;20155;-74
2022/04/06 01:24:16;;;;;;;6.53;3.30;;;;;;;6.47;45.36;100982.97;2569055;23;20159;-74
2022/04/06 01:25:16;;;;;;;4.80;3.37;;;;;;;6.39;45.85;100995.19;2569232;23;20154;-74
2022/04/06 01:26:17;;;;;;;6.40;3.80;;;;;;;6.30;45.66;100972.00;2569105;23;20246;-74
2022/04/06 01:27:18;;;;;;;5.20;3.47;;;;;;;6.38;45.57;100984.56;2568530;23;20181;-74
2022/04/06 01:28:18;;;;;;;5.27;3.43;;;;;;;6.37;45.38;100994.81;2569045;23;20153;-74
2022/04/06 01:29:19;;;;;;;7.47;3.50;;;;;;;6.38;45.47;100987.31;2569260;23;20158;-74
2022/04/06 01:30:20;;;;;;;4.90;3.17;;;;;;;6.39;45.53;100992.44;2569243;23;20160;-74
2022/04/06 01:31:20;;;;;;;5.77;3.27;;;;;;;6.42;46.06;100985.34;2568958;23;20179;-74
2022/04/06 01:32:23;;;;;;;5.47;3.50;;;;;;;6.41;46.12;100992.06;2568954;23;20150;-74
2022/04/06 01:33:24;;;;;;;6.32;3.38;;;;;;;6.42;46.08;100993.63;2568344;23;20749;-74
2022/04/06 01:34:24;;;;;;;12.73;4.67;;;;;;;6.37;46.15;100994.00;2568939;23;20326;-74
2022/04/06 01:35:25;;;;;;;14.17;4.73;;;;;;;6.17;46.67;100970.84;2569083;23;20571;-74
2022/04/06 01:36:26;;;;;;;14.70;4.25;;;;;;;6.34;46.31;100987.34;2569158;23;20154;-74
2022/04/06 01:37:28;;;;;;;7.27;3.60;;;;;;;6.31;45.51;100995.59;2568358;23;20554;-74
2022/04/06 01:38:29;;;;;;;7.45;3.50;;;;;;;6.30;45.79;100988.53;2569118;23;20151;-74
2022/04/06 01:39:30;;;;;;;6.90;3.27;;;;;;;5.47;45.36;100863.53;2569215;23;20160;-74
2022/04/06 01:40:32;;;;;;;5.07;3.20;;;;;;;6.24;45.56;100990.88;2555850;23;20162;-74
2022/04/06 01:41:34;;;;;;;6.35;3.33;;;;;;;5.19;45.76;100861.53;2555607;23;20242;-74
2022/04/06 01:42:34;;;;;;;6.40;3.50;;;;;;;6.21;46.34;100988.91;2569178;23;20148;-74
2022/04/06 01:43:35;;;;;;;5.33;3.27;;;;;;;6.33;46.19;100990.47;2568279;23;20146;-74
2022/04/06 01:44:37;;;;;;;5.23;3.70;;;;;;;6.31;46.57;100992.84;2514442;23;1271105;-74
2022/04/06 01:45:37;;;;;;;5.22;3.40;;;;;;;5.42;46.04;100841.94;2569517;23;20150;-74
2022/04/06 01:46:38;;;;;;;4.93;3.40;;;;;;;6.39;45.77;100989.69;2569591;23;20639;-74
2022/04/06 01:47:39;;;;;;;6.27;3.70;;;;;;;6.36;46.12;100990.47;2568840;23;20285;-74
2022/04/06 01:52:12;;;;;;;7.87;4.00;;;;;;;5.28;46.19;100812.50;2569646;23;20147;-74
2022/04/06 01:52:38;;;;;;;7.30;4.15;;;;;;;6.56;46.85;100993.59;2569710;23;20597;-74
2022/04/06 01:53:38;;;;;;;7.00;3.33;;;;;;;6.26;46.67;100962.97;2568702;23;20547;-74
2022/04/06 01:55:01;;;;;;;6.93;3.90;;;;;;;6.59;46.78;100995.53;2569616;23;20157;-74
2022/04/06 01:56:02;;;;;;;8.00;3.95;;;;;;;6.61;46.92;100987.69;2569423;23;20165;-74
2022/04/06 01:57:03;;;;;;;6.40;3.73;;;;;;;6.62;47.19;100992.78;2569047;23;20155;-74
2022/04/06 01:58:04;;;;;;;10.73;5.88;;;;;;;6.66;47.60;100998.31;2569562;23;20230;-74
2022/04/06 01:59:05;;;;;;;7.90;3.50;;;;;;;6.63;46.43;100985.31;2569493;23;20150;-74
2022/04/06 02:00:09;;;;;;;10.60;6.37;;;;;;;6.72;46.61;100994.72;2569514;23;20159;-74
2022/04/06 02:01:10;;;;;;;9.05;5.03;;;;;;;6.76;46.83;100997.50;2569475;23;20160;-74
2022/04/06 02:02:13;;;;;;;8.40;5.07;;;;;;;4.28;46.94;100603.38;2569242;23;20159;-74
2022/04/06 02:03:13;;;;;;;8.00;5.03;;;;;;;6.79;46.56;100985.66;2568789;23;20551;-74
2022/04/06 02:04:14;;;;;;;8.23;5.10;;;;;;;5.95;46.30;100856.50;2569215;23;20157;-74
2022/04/06 02:05:16;;;;;;;10.93;5.87;;;;;;;6.97;46.08;100997.44;2569481;23;20151;-74
2022/04/06 02:06:17;;;;;;;9.80;5.43;;;;;;;7.00;46.77;101002.94;2569619;23;20613;-74
2022/04/06 02:07:18;;;;;;;8.77;3.80;;;;;;;7.07;46.91;101010.38;2568957;23;20174;-74
2022/04/06 02:08:19;;;;;;;6.57;3.90;;;;;;;5.58;45.98;100771.66;2568968;23;20165;-74
2022/04/06 02:09:20;;;;;;;7.40;4.00;;;;;;;7.10;47.44;101001.31;2569311;23;20165;-74
2022/04/06 02:10:21;;;;;;;7.82;4.00;;;;;;;6.66;46.24;100970.78;2569315;23;20223;-74
2022/04/06 02:11:21;;;;;;;6.07;3.87;;;;;;;7.17;46.59;101002.06;2569033;23;20214;-74
2022/04/06 02:12:22;;;;;;;8.30;4.90;;;;;;;6.00;46.17;100815.59;2569379;23;20151;-74
2022/04/06 02:13:23;;;;;;;6.33;3.90;;;;;;;7.24;46.46;101001.25;2555546;23;20151;-74
2022/04/06 02:14:23;;;;;;;6.37;4.27;;;;;;;7.13;46.08;100975.72;2556170;23;20575;-74
2022/04/06 02:15:27;;;;;;;6.47;3.83;;;;;;;7.20;45.69;100984.75;2569565;23;20182;-74
2022/04/06 02:16:28;;;;;;;8.23;4.35;;;;;;;6.47;46.38;100875.59;2569360;23;20154;-74
2022/04/06 02:17:28;;;;;;;7.30;4.87;;;;;;;6.28;46.23;100834.00;2568806;23;20235;-74
2022/04/06 02:18:29;;;;;;;6.77;3.70;;;;;;;7.34;46.07;100994.91;2569522;23;20158;-74
2022/04/06 02:19:31;;;;;;;8.80;5.23;;;;;;;7.34;45.81;101023.25;2569614;23;20152;-74
2022/04/06 02:20:31;;;;;;;9.35;5.57;;;;;;;7.35;45.29;100999.22;2569511;23;20159;-74
2022/04/06 02:21:33;;;;;;;8.50;5.17;;;;;;;7.25;45.82;100994.56;2569072;23;20152;-74
2022/04/06 02:22:34;;;;;;;7.78;5.00;;;;;;;7.32;45.00;101006.34;2569514;23;20174;-74
2022/04/06 02:23:34;;;;;;;8.77;5.27;;;;;;;7.36;45.21;101001.59;2555333;23;20187;-74
2022/04/06 02:24:35;;;;;;;8.67;5.40;;;;;;;7.39;45.03;101008.28;2556087;23;20221;-74
2022/04/06 02:25:36;;;;;;;7.70;5.07;;;;;;;7.44;45.05;100999.59;2569316;23;20151;-74
2022/04/06 02:26:36;;;;;;;7.13;5.07;;;;;;;7.45;44.80;101020.47;2569737;23;20152;-75
2022/04/06 02:28:03;;;;;;;7.97;4.73;;;;;;;7.51;44.75;101005.84;2568949;23;20232;-74
2022/04/06 02:29:04;;;;;;;8.88;5.00;;;;;;;7.49;44.39;100999.94;2565315;23;20238;-74
2022/04/06 02:30:06;;;;;;;8.93;5.28;;;;;;;7.64;45.30;101006.19;2569464;23;20178;-74
2022/04/06 02:31:06;;;;;;;8.20;4.40;;;;;;;7.61;45.66;100996.75;2569744;23;20157;-74
2022/04/06 02:32:08;;;;;;;7.87;4.77;;;;;;;7.70;44.55;101005.31;2568627;23;20507;-74
2022/04/06 02:33:09;;;;;;;7.25;4.63;;;;;;;7.46;44.55;100972.38;2569089;23;20206;-74
2022/04/06 02:34:09;;;;;;;7.73;5.07;;;;;;;7.32;45.42;100948.44;2569066;23;20149;-74
2022/04/06 02:35:11;;;;;;;6.77;4.47;;;;;;;7.71;46.88;101031.75;2569465;23;20210;-74
2022/04/06 02:36:11;;;;;;;9.50;5.10;;;;;;;7.73;48.20;101015.56;2556204;23;20164;-74
2022/04/06 02:37:12;;;;;;;7.73;4.50;;;;;;;7.72;48.02;101021.47;2555945;23;20183;-74
2022/04/06 02:38:13;;;;;;;8.30;4.85;;;;;;;7.69;49.52;101019.53;2569269;23;20156;-74
2022/04/06 02:39:14;;;;;;;7.87;5.10;;;;;;;7.70;50.42;101018.34;2569507;23;20148;-74
2022/04/06 02:40:15;;;;;;;8.83;4.50;;;;;;;7.72;50.53;101013.22;2569304;23;20665;-74
2022/04/06 02:41:16;;;;;;;8.55;5.18;;;;;;;7.72;50.47;101015.97;2569124;23;20222;-74
2022/04/06 02:42:16;;;;;;;8.23;5.10;;;;;;;7.72;51.28;101013.22;2569537;23;20242;-74
2022/04/06 02:43:17;;;;;;;8.60;5.03;;;;;;;7.72;50.85;101010.44;2568967;23;20184;-74
2022/04/06 02:44:18;;;;;;;7.00;4.93;;;;;;;7.73;50.94;101012.00;2555971;23;20168;-74
2022/04/06 02:45:18;;;;;;;6.70;5.13;;;;;;;7.73;52.22;101009.25;2556121;23;20527;-74
2022/04/06 02:46:19;;;;;;;8.57;4.90;;;;;;;7.71;52.08;101011.63;2569254;23;20156;-74
2022/04/06 02:47:20;;;;;;;7.07;4.80;;;;;;;7.70;52.23;101008.09;2568909;23;20435;-74
2022/04/06 02:48:20;;;;;;;7.93;4.90;;;;;;;7.68;52.71;101004.97;2569473;23;20204;-74
2022/04/06 02:49:21;;;;;;;10.20;5.53;;;;;;;7.54;52.34;100973.94;2569597;23;20617;-74
2022/04/06 02:50:21;;;;;;;8.57;5.23;;;;;;;7.52;53.03;100981.81;2556207;23;20161;-74
2022/04/06 02:51:22;;;;;;;7.97;5.23;;;;;;;7.64;53.05;101001.44;2555796;23;20651;-74
2022/04/06 02:52:22;;;;;;;6.43;5.00;;;;;;;7.63;52.99;100996.34;2568567;23;20186;-74
2022/04/06 02:53:23;;;;;;;8.70;4.97;;;;;;;7.62;52.50;100997.50;2568662;23;20172;-74
2022/04/06 02:54:24;;;;;;;7.20;5.00;;;;;;;6.98;53.10;100910.84;2569490;23;20151;-74
2022/04/06 02:55:24;;;;;;;9.57;4.97;;;;;;;7.58;52.39;100997.53;2569422;23;20634;-74
2022/04/06 02:56:25;;;;;;;6.03;4.60;;;;;;;7.29;53.06;100954.75;2569377;23;20246;-74
2022/04/06 02:57:26;;;;;;;7.93;4.63;;;;;;;7.49;52.66;101007.44;2569187;23;20156;-74
2022/04/06 02:58:26;;;;;;;6.90;4.90;;;;;;;7.20;53.31;100970.97;2556195;23;20564;-74
2022/04/06 02:59:27;;;;;;;7.90;5.10;;;;;;;6.81;53.38;100929.00;2556991;23;20153;-74
2022/04/06 03:00:28;;;;;;;6.93;5.03;;;;;;;7.29;53.35;101012.63;2570153;23;20162;-74
2022/04/06 03:01:29;;;;;;;8.23;5.50;;;;;;;7.20;54.00;101017.81;2569973;23;20159;-74
2022/04/06 03:02:29;;;;;;;8.60;5.10;;;;;;;7.15;53.93;101018.22;2570125;23;20230;-74
2022/04/06 03:03:30;;;;;;;9.63;5.13;;;;;;;7.07;54.52;101011.16;2569431;23;20148;-74
2022/04/06 03:04:30;;;;;;;8.80;5.10;;;;;;;7.20;54.49;101015.06;2570231;23;20158;-74
2022/04/06 03:05:31;;;;;;;9.97;4.80;;;;;;;7.02;54.27;100997.78;2570106;23;20147;-74
2022/04/06 03:06:31;;;;;;;7.40;5.03;;;;;;;7.22;53.90;101020.94;2570293;23;20231;-74
2022/04/06 03:07:32;;;;;;;7.10;5.10;;;;;;;7.14;54.06;101007.59;2569497;23;20230;-74
2022/04/06 03:08:33;;;;;;;7.67;4.93;;;;;;;7.13;54.41;101020.59;2570148;23;20499;-74
2022/04/06 03:09:33;;;;;;;7.60;5.13;;;;;;;7.12;54.18;101035.56;2570250;23;20175;-74
2022/04/06 03:10:34;;;;;;;9.37;5.40;;;;;;;7.13;55.17;101034.38;2570388;23;20155;-74
2022/04/06 03:11:35;;;;;;;8.43;5.33;;;;;;;6.89;54.42;100991.16;2569386;23;20162;-74
2022/04/06 03:12:36;;;;;;;7.43;5.22;;;;;;;7.18;55.25;101030.44;2570101;23;20215;-74
2022/04/06 03:13:37;;;;;;;8.10;5.30;;;;;;;6.02;54.72;100850.97;2569167;23;20160;-75
2022/04/06 03:14:37;;;;;;;6.73;5.50;;;;;;;7.19;54.89;101027.28;2570094;23;20156;-75
2022/04/06 03:15:38;;;;;;;7.63;5.30;;;;;;;7.21;54.51;101026.84;2570097;23;20183;-74
2022/04/06 03:16:38;;;;;;;7.23;5.07;;;;;;;7.21;55.04;101035.91;2570512;23;20147;-74
2022/04/06 03:17:39;;;;;;;7.50;5.20;;;;;;;7.20;54.05;101033.56;2569581;23;20145;-74
2022/04/06 03:18:39;;;;;;;7.80;5.27;;;;;;;7.24;54.34;101059.16;2557021;23;20205;-74
2022/04/06 03:19:40;;;;;;;8.27;5.13;;;;;;;7.25;54.37;101033.94;2556949;23;20149;-74
2022/04/06 03:20:40;;;;;;;5.70;4.43;;;;;;;7.24;54.52;101024.09;2570146;23;20202;-74
2022/04/06 03:21:41;;;;;;;6.90;4.73;;;;;;;7.26;54.02;101034.72;2569476;23;20151;-74
2022/04/06 03:22:42;;;;;;;8.43;4.80;;;;;;;7.27;53.99;101028.81;2570102;23;20604;-74
2022/04/06 03:23:42;;;;;;;7.00;4.80;;;;;;;7.28;53.56;101029.59;2569125;23;20170;-74
2022/04/06 03:24:47;;;;;;;7.67;4.87;;;;;;;7.27;54.00;101028.00;2570239;23;20152;-74
2022/04/06 03:25:47;;;;;;;7.97;5.25;;;;;;;7.28;53.42;101026.84;2569910;23;20175;-74
2022/04/06 03:26:48;;;;;;;6.33;4.77;;;;;;;7.10;53.47;101012.34;2569636;23;20156;-74
2022/04/06 03:27:49;;;;;;;9.27;5.30;;;;;;;6.16;54.03;100872.97;2570128;23;20148;-74
2022/04/06 03:28:49;;;;;;;7.43;5.10;;;;;;;7.21;54.50;101032.38;2569971;23;20163;-74
2022/04/06 03:29:50;;;;;;;8.20;5.30;;;;;;;7.23;55.80;101046.56;2570262;23;20156;-74
2022/04/06 03:30:50;;;;;;;6.43;4.93;;;;;;;5.72;56.21;100810.13;2570178;23;20186;-74
2022/04/06 03:31:51;;;;;;;7.73;5.50;;;;;;;6.41;56.60;100924.00;2569554;23;20606;-74
2022/04/06 03:32:52;;;;;;;7.22;5.22;;;;;;;7.24;56.12;101045.38;2570000;23;20161;-74
2022/04/06 03:33:53;;;;;;;7.72;4.80;;;;;;;7.24;56.49;101037.88;2569211;23;20157;-74
2022/04/06 03:34:54;;;;;;;6.90;5.00;;;;;;;7.24;55.76;101037.09;2569810;23;20603;-74
2022/04/06 03:35:54;;;;;;;8.33;5.67;;;;;;;7.24;56.68;101042.59;2556756;23;20157;-74
2022/04/06 03:36:55;;;;;;;7.47;5.33;;;;;;;6.79;57.25;101013.22;2556284;23;20220;-74
2022/04/06 03:37:55;;;;;;;7.03;4.53;;;;;;;7.19;57.68;101043.03;2570130;23;20654;-74
2022/04/06 03:38:56;;;;;;;7.53;4.63;;;;;;;7.21;57.44;101046.16;2570103;23;20223;-74
2022/04/06 03:39:57;;;;;;;8.30;5.47;;;;;;;6.95;57.34;100997.03;2570130;23;20187;-74
2022/04/06 03:40:57;;;;;;;7.97;5.57;;;;;;;7.26;57.92;101037.47;2570175;23;20417;-74
2022/04/06 03:41:58;;;;;;;8.57;5.47;;;;;;;7.28;57.71;101043.38;2569361;23;20152;-74
2022/04/06 03:42:58;;;;;;;7.00;5.33;;;;;;;7.30;57.40;101046.50;2570014;23;20156;-74
2022/04/06 03:43:59;;;;;;;8.30;5.60;;;;;;;6.30;57.02;100884.72;2569077;23;20238;-74
2022/04/06 03:45:00;;;;;;;7.33;5.10;;;;;;;6.04;57.54;100843.88;2569931;23;20345;-74
2022/04/06 03:46:02;;;;;;;9.68;5.70;;;;;;;7.35;57.18;101048.84;2569967;23;20163;-74
2022/04/06 03:47:02;;;;;;;7.10;5.25;;;;;;;7.35;56.87;101046.91;2569312;23;20234;-74
2022/04/06 03:48:03;;;;;;;8.57;5.27;;;;;;;7.06;57.31;101009.59;2569997;23;20160;-74
2022/04/06 03:49:04;;;;;;;7.00;5.10;;;;;;;6.78;57.05;100940.03;2570156;23;20151;-74
2022/04/06 03:50:05;;;;;;;6.87;5.10;;;;;;;7.20;56.96;101012.31;2569896;23;20214;-74
2022/04/06 03:51:06;;;;;;;7.05;5.35;;;;;;;6.36;57.00;100887.84;2570124;23;20153;-74
2022/04/06 03:52:07;;;;;;;6.17;4.93;;;;;;;7.37;56.56;101040.97;2569469;23;20159;-74
2022/04/06 03:53:07;;;;;;;9.40;5.28;;;;;;;7.38;57.02;101039.81;2569859;23;20187;-74
2022/04/06 03:54:08;;;;;;;6.57;5.10;;;;;;;7.38;56.77;101037.81;2569551;23;20151;-74
2022/04/06 03:55:09;;;;;;;7.10;4.93;;;;;;;6.79;56.21;100947.91;2570039;23;20235;-74
2022/04/06 03:56:10;;;;;;;8.35;4.82;;;;;;;7.38;55.90;101043.31;2569842;23;20155;-74
2022/04/06 03:57:10;;;;;;;7.87;5.60;;;;;;;7.38;56.50;101043.31;2569372;23;20223;-74
2022/04/06 03:58:11;;;;;;;7.93;5.60;;;;;;;7.37;56.38;101036.25;2569956;23;20563;-74
2022/04/06 03:59:11;;;;;;;10.00;5.33;;;;;;;6.33;56.03;100885.88;2569971;23;20158;-74
2022/04/06 04:00:13;;;;;;;12.03;5.50;;;;;;;7.16;56.32;101000.50;2569952;23;20238;-74
2022/04/06 04:01:13;;;;;;;10.63;5.40;;;;;;;7.38;55.69;101053.59;2569661;23;20159;-74
2022/04/06 04:02:14;;;;;;;7.60;5.57;;;;;;;6.74;55.33;100948.31;2569815;23;20152;-74
2022/04/06 04:03:14;;;;;;;8.10;5.57;;;;;;;7.37;55.04;101049.22;2569283;23;20156;-75
2022/04/06 04:04:15;;;;;;;8.40;5.97;;;;;;;7.29;54.38;101055.97;2569569;23;20230;-74
2022/04/06 04:05:15;;;;;;;10.17;6.03;;;;;;;7.22;53.65;101056.00;2570007;23;20144;-74
2022/04/06 04:06:16;;;;;;;11.40;5.53;;;;;;;7.25;53.72;101058.75;2569924;23;20496;-74
2022/04/06 04:07:20;;;;;;;10.43;5.87;;;;;;;6.06;54.98;100855.28;2569525;23;20187;-74
2022/04/06 04:08:22;;;;;;;6.80;5.35;;;;;;;7.40;56.05;101062.22;2569794;23;20207;-74
2022/04/06 04:09:22;;;;;;;6.40;5.00;;;;;;;7.37;55.85;101044.53;2569768;23;20227;-74
2022/04/06 04:10:23;;;;;;;8.13;5.23;;;;;;;7.46;55.82;101063.38;2569356;23;20201;-74
2022/04/06 04:11:24;;;;;;;7.90;4.87;;;;;;;6.31;55.65;100891.00;2569508;23;20550;-74
2022/04/06 04:12:24;;;;;;;6.90;5.10;;;;;;;7.06;55.75;101008.78;2569646;23;20509;-74
2022/04/06 04:13:25;;;;;;;6.00;4.50;;;;;;;7.45;55.89;101057.09;2569197;23;20242;-74
2022/04/06 04:14:26;;;;;;;8.13;5.33;;;;;;;7.44;55.10;101055.50;2569805;23;20148;-74
2022/04/06 04:15:27;;;;;;;7.57;5.13;;;;;;;7.44;55.44;101055.50;2569991;23;20237;-74
2022/04/06 04:16:27;;;;;;;7.03;5.30;;;;;;;6.22;55.53;100874.13;2569852;23;20217;-74
2022/04/06 04:17:28;;;;;;;8.50;5.27;;;;;;;7.46;55.88;101057.88;2569296;23;20536;-74
2022/04/06 04:18:29;;;;;;;9.43;5.90;;;;;;;7.48;55.01;101063.78;2569735;23;20546;-74
2022/04/06 04:19:29;;;;;;;8.73;5.40;;;;;;;7.47;54.59;101060.22;2569997;23;20162;-74
2022/04/06 04:20:30;;;;;;;8.37;5.70;;;;;;;7.50;54.53;101061.41;2569837;23;20155;-74
2022/04/06 04:21:33;;;;;;;7.27;5.73;;;;;;;6.74;54.82;100944.75;2569611;23;20178;-74
2022/04/06 04:22:34;;;;;;;6.97;5.38;;;;;;;7.36;54.36;101031.91;2569974;23;20145;-74
2022/04/06 04:23:34;;;;;;;8.40;5.43;;;;;;;7.39;54.92;101035.84;2568862;23;20155;-74
2022/04/06 04:24:35;;;;;;;8.70;5.73;;;;;;;7.57;54.83;101064.13;2569990;23;20610;-74
2022/04/06 04:25:35;;;;;;;7.03;5.67;;;;;;;7.58;54.43;101062.97;2569819;23;20156;-74
2022/04/06 04:26:38;;;;;;;7.67;5.50;;;;;;;7.54;54.97;101060.19;2569888;23;20602;-74
2022/04/06 04:27:39;;;;;;;7.65;5.65;;;;;;;7.52;55.43;101067.28;2569287;23;20606;-74
2022/04/06 04:28:40;;;;;;;7.53;5.23;;;;;;;7.41;55.67;101072.88;2569967;23;20540;-74
2022/04/06 04:29:40;;;;;;;7.53;5.43;;;;;;;7.32;56.07;101077.22;2569880;23;20702;-74
2022/04/06 04:30:41;;;;;;;8.67;5.77;;;;;;;7.21;55.93;101077.28;2570144;23;20155;-74
2022/04/06 04:31:42;;;;;;;12.67;6.47;;;;;;;7.17;56.47;101057.19;2569171;23;20633;-74
2022/04/06 04:32:42;;;;;;;14.20;7.30;;;;;;;7.30;55.78;101074.88;2569598;23;20162;-74
2022/04/06 04:33:43;;;;;;;15.97;7.50;;;;;;;7.35;55.81;101079.19;2568974;23;20155;-74
2022/04/06 04:34:44;;;;;;;12.40;6.33;;;;;;;6.38;55.01;100924.81;2569951;23;20673;-74
2022/04/06 04:35:44;;;;;;;13.43;6.45;;;;;;;7.43;54.53;101083.50;2569665;23;20571;-74
2022/04/06 04:36:45;;;;;;;11.87;6.07;;;;;;;7.45;52.79;101073.66;2569474;23;20156;-74
2022/04/06 04:37:46;;;;;;;9.77;5.57;;;;;;;6.94;53.47;100993.50;2569795;23;20176;-74
2022/04/06 04:38:46;;;;;;;10.10;5.97;;;;;;;7.49;52.11;101068.09;2569819;23;20213;-74
2022/04/06 04:39:47;;;;;;;10.20;5.83;;;;;;;6.98;51.63;100985.22;2569742;23;20385;-74
2022/04/06 04:40:47;;;;;;;10.97;6.13;;;;;;;7.65;51.55;101077.50;2569923;23;20159;-74
2022/04/06 04:41:49;;;;;;;11.77;6.37;;;;;;;7.72;50.58;101082.16;2569330;23;20192;-74
2022/04/06 04:42:50;;;;;;;13.43;7.03;;;;;;;7.71;51.76;101072.34;2569744;23;20504;-74
2022/04/06 04:43:50;;;;;;;10.93;6.13;;;;;;;6.79;51.57;100920.34;2555437;23;20512;-74
2022/04/06 04:44:52;;;;;;;11.53;6.40;;;;;;;7.88;51.42;101085.22;2556351;23;20212;-74
2022/04/06 04:45:52;;;;;;;12.35;6.22;;;;;;;7.93;52.29;101087.56;2569760;23;20153;-74
2022/04/06 04:46:53;;;;;;;9.87;6.17;;;;;;;7.98;51.55;101087.94;2568906;23;20619;-75
2022/04/06 04:47:53;;;;;;;9.60;6.43;;;;;;;8.02;51.67;101091.47;2569761;23;20163;-74
2022/04/06 04:48:54;;;;;;;10.93;6.23;;;;;;;7.79;53.02;101058.09;2569626;23;20183;-74
2022/04/06 04:49:54;;;;;;;8.93;6.00;;;;;;;8.05;51.90;101085.13;2569914;23;20152;-74
2022/04/06 04:50:55;;;;;;;8.70;6.00;;;;;;;8.17;50.66;101101.25;2569474;23;20232;-74